Willow Bunch, Canada
Current Conditions -  °F | °C
As of 6:00 AM on Saturday 20 Dec 2014 (Local Time) from CYQR Reporting Station
Haze Haze  
Wind Chill:   Ceiling: 300
Heat Index: 19°   Visibility: 1.5mi
Dew Point: 18°   Wind: 15mph
Humidity: 93%   Direction: 130°SE
Pressure: 29.79"   Gusts: NA
Location:  49.4°N, 105.63°W
Report Text: CYQR 201200Z 13013KT 1 1/2SM BR OVC003 M07/M08 A2979 RMK ST8 SLP126
Loading
Personal Weather Stations






























Interactive Weather Map New forecast layout! Learn more

10-Day Weather Forecast

Advertisements
Track Severe Weather on mobile